sensor_id;sensor_type;location;lat;lon;timestamp;P1;durP1;ratioP1;P2;durP2;ratioP2
20110;SDS011;10216;42.658;23.248;2022-09-16T00:02:21;5.60;;;2.20;;
20110;SDS011;10216;42.658;23.248;2022-09-16T00:04:46;7.73;;;2.03;;
20110;SDS011;10216;42.658;23.248;2022-09-16T00:07:12;6.70;;;2.00;;
20110;SDS011;10216;42.658;23.248;2022-09-16T00:09:37;11.60;;;2.57;;
20110;SDS011;10216;42.658;23.248;2022-09-16T00:12:04;7.43;;;2.20;;
20110;SDS011;10216;42.658;23.248;2022-09-16T00:14:29;6.93;;;2.23;;
20110;SDS011;10216;42.658;23.248;2022-09-16T00:16:57;8.50;;;2.10;;
20110;SDS011;10216;42.658;23.248;2022-09-16T00:19:22;10.47;;;2.10;;
20110;SDS011;10216;42.658;23.248;2022-09-16T00:21:48;5.57;;;1.90;;
20110;SDS011;10216;42.658;23.248;2022-09-16T00:24:14;5.77;;;2.10;;
20110;SDS011;10216;42.658;23.248;2022-09-16T00:26:41;6.00;;;1.90;;
20110;SDS011;10216;42.658;23.248;2022-09-16T00:29:06;6.53;;;1.80;;
20110;SDS011;10216;42.658;23.248;2022-09-16T00:31:32;6.63;;;2.00;;
20110;SDS011;10216;42.658;23.248;2022-09-16T00:33:57;10.63;;;2.03;;
20110;SDS011;10216;42.658;23.248;2022-09-16T00:36:23;8.13;;;2.00;;
20110;SDS011;10216;42.658;23.248;2022-09-16T00:38:49;6.00;;;2.07;;
20110;SDS011;10216;42.658;23.248;2022-09-16T00:41:17;9.63;;;2.00;;
20110;SDS011;10216;42.658;23.248;2022-09-16T00:43:45;8.17;;;1.90;;
20110;SDS011;10216;42.658;23.248;2022-09-16T00:46:12;11.30;;;2.20;;
20110;SDS011;10216;42.658;23.248;2022-09-16T00:48:37;6.77;;;2.10;;
20110;SDS011;10216;42.658;23.248;2022-09-16T00:51:04;10.10;;;2.27;;
20110;SDS011;10216;42.658;23.248;2022-09-16T00:53:34;6.73;;;1.70;;
20110;SDS011;10216;42.658;23.248;2022-09-16T00:56:04;6.97;;;2.13;;
20110;SDS011;10216;42.658;23.248;2022-09-16T00:58:34;6.00;;;2.20;;
20110;SDS011;10216;42.658;23.248;2022-09-16T01:01:01;8.83;;;2.40;;
20110;SDS011;10216;42.658;23.248;2022-09-16T01:03:29;7.10;;;2.13;;
20110;SDS011;10216;42.658;23.248;2022-09-16T01:05:58;5.30;;;1.93;;
20110;SDS011;10216;42.658;23.248;2022-09-16T01:08:27;11.13;;;2.03;;
20110;SDS011;10216;42.658;23.248;2022-09-16T01:10:52;6.80;;;2.27;;
20110;SDS011;10216;42.658;23.248;2022-09-16T01:13:18;6.53;;;1.67;;
20110;SDS011;10216;42.658;23.248;2022-09-16T01:15:46;5.57;;;1.70;;
20110;SDS011;10216;42.658;23.248;2022-09-16T01:18:52;5.73;;;1.70;;
20110;SDS011;10216;42.658;23.248;2022-09-16T01:26:54;5.90;;;1.47;;
20110;SDS011;10216;42.658;23.248;2022-09-16T01:51:29;5.93;;;2.00;;
20110;SDS011;10216;42.658;23.248;2022-09-16T01:54:07;6.23;;;1.83;;
20110;SDS011;10216;42.658;23.248;2022-09-16T01:56:45;8.23;;;2.03;;
20110;SDS011;10216;42.658;23.248;2022-09-16T02:01:44;9.43;;;2.27;;
20110;SDS011;10216;42.658;23.248;2022-09-16T02:04:18;9.83;;;2.40;;
20110;SDS011;10216;42.658;23.248;2022-09-16T02:06:47;7.70;;;2.53;;
20110;SDS011;10216;42.658;23.248;2022-09-16T02:09:17;8.47;;;2.50;;
20110;SDS011;10216;42.658;23.248;2022-09-16T02:11:46;8.77;;;2.00;;
20110;SDS011;10216;42.658;23.248;2022-09-16T02:14:16;7.43;;;2.33;;
20110;SDS011;10216;42.658;23.248;2022-09-16T02:19:18;9.43;;;2.17;;
20110;SDS011;10216;42.658;23.248;2022-09-16T02:21:48;6.70;;;2.00;;
20110;SDS011;10216;42.658;23.248;2022-09-16T02:24:17;6.93;;;2.13;;
20110;SDS011;10216;42.658;23.248;2022-09-16T02:26:49;7.20;;;2.27;;
20110;SDS011;10216;42.658;23.248;2022-09-16T02:29:29;6.63;;;1.97;;
20110;SDS011;10216;42.658;23.248;2022-09-16T02:32:01;9.87;;;2.73;;
20110;SDS011;10216;42.658;23.248;2022-09-16T02:34:38;9.87;;;2.40;;
20110;SDS011;10216;42.658;23.248;2022-09-16T02:37:08;10.13;;;2.80;;
20110;SDS011;10216;42.658;23.248;2022-09-16T02:39:39;5.13;;;2.30;;
20110;SDS011;10216;42.658;23.248;2022-09-16T02:42:10;5.77;;;2.40;;
20110;SDS011;10216;42.658;23.248;2022-09-16T02:44:36;9.23;;;2.50;;
20110;SDS011;10216;42.658;23.248;2022-09-16T02:49:38;6.17;;;2.27;;
20110;SDS011;10216;42.658;23.248;2022-09-16T02:52:13;6.60;;;2.30;;
20110;SDS011;10216;42.658;23.248;2022-09-16T02:54:50;6.30;;;2.87;;
20110;SDS011;10216;42.658;23.248;2022-09-16T02:57:20;10.80;;;2.53;;
20110;SDS011;10216;42.658;23.248;2022-09-16T02:59:46;9.63;;;2.60;;
20110;SDS011;10216;42.658;23.248;2022-09-16T03:02:12;7.23;;;2.33;;
20110;SDS011;10216;42.658;23.248;2022-09-16T03:04:38;5.50;;;1.93;;
20110;SDS011;10216;42.658;23.248;2022-09-16T03:07:03;4.77;;;2.30;;
20110;SDS011;10216;42.658;23.248;2022-09-16T03:09:32;6.90;;;2.53;;
20110;SDS011;10216;42.658;23.248;2022-09-16T03:12:04;6.27;;;2.47;;
20110;SDS011;10216;42.658;23.248;2022-09-16T03:22:50;10.77;;;2.60;;
20110;SDS011;10216;42.658;23.248;2022-09-16T03:26:08;4.17;;;2.10;;
20110;SDS011;10216;42.658;23.248;2022-09-16T03:31:25;4.60;;;2.00;;
20110;SDS011;10216;42.658;23.248;2022-09-16T03:36:56;5.50;;;2.40;;
20110;SDS011;10216;42.658;23.248;2022-09-16T03:39:24;6.33;;;2.30;;
20110;SDS011;10216;42.658;23.248;2022-09-16T03:41:50;7.63;;;2.87;;
20110;SDS011;10216;42.658;23.248;2022-09-16T03:44:16;8.33;;;2.47;;
20110;SDS011;10216;42.658;23.248;2022-09-16T03:46:41;7.17;;;2.50;;
20110;SDS011;10216;42.658;23.248;2022-09-16T03:49:07;8.73;;;2.43;;
20110;SDS011;10216;42.658;23.248;2022-09-16T03:51:32;9.33;;;2.30;;
20110;SDS011;10216;42.658;23.248;2022-09-16T03:53:57;7.63;;;2.33;;
20110;SDS011;10216;42.658;23.248;2022-09-16T03:56:23;6.80;;;2.10;;
20110;SDS011;10216;42.658;23.248;2022-09-16T03:58:49;9.07;;;3.10;;
20110;SDS011;10216;42.658;23.248;2022-09-16T04:01:15;8.33;;;2.90;;
20110;SDS011;10216;42.658;23.248;2022-09-16T04:03:40;5.80;;;2.80;;
20110;SDS011;10216;42.658;23.248;2022-09-16T04:06:06;5.50;;;2.63;;
20110;SDS011;10216;42.658;23.248;2022-09-16T04:08:31;9.03;;;3.00;;
20110;SDS011;10216;42.658;23.248;2022-09-16T04:10:57;9.07;;;3.00;;
20110;SDS011;10216;42.658;23.248;2022-09-16T04:13:30;9.67;;;2.67;;
20110;SDS011;10216;42.658;23.248;2022-09-16T04:15:59;11.30;;;2.57;;
20110;SDS011;10216;42.658;23.248;2022-09-16T04:18:24;9.97;;;2.47;;
20110;SDS011;10216;42.658;23.248;2022-09-16T04:20:54;7.97;;;2.43;;
20110;SDS011;10216;42.658;23.248;2022-09-16T04:23:22;7.40;;;3.23;;
20110;SDS011;10216;42.658;23.248;2022-09-16T04:25:58;5.27;;;2.47;;
20110;SDS011;10216;42.658;23.248;2022-09-16T04:28:25;5.63;;;2.30;;
20110;SDS011;10216;42.658;23.248;2022-09-16T04:30:51;9.37;;;2.67;;
20110;SDS011;10216;42.658;23.248;2022-09-16T04:33:17;8.60;;;2.33;;
20110;SDS011;10216;42.658;23.248;2022-09-16T04:35:42;12.97;;;3.10;;
20110;SDS011;10216;42.658;23.248;2022-09-16T04:38:08;12.07;;;2.53;;
20110;SDS011;10216;42.658;23.248;2022-09-16T04:40:35;6.90;;;2.40;;
20110;SDS011;10216;42.658;23.248;2022-09-16T04:43:02;10.17;;;2.90;;
20110;SDS011;10216;42.658;23.248;2022-09-16T04:45:28;6.37;;;2.23;;
20110;SDS011;10216;42.658;23.248;2022-09-16T04:47:57;9.00;;;2.60;;
20110;SDS011;10216;42.658;23.248;2022-09-16T04:50:22;6.63;;;2.53;;
20110;SDS011;10216;42.658;23.248;2022-09-16T04:52:49;6.03;;;2.60;;
20110;SDS011;10216;42.658;23.248;2022-09-16T04:55:16;8.00;;;2.60;;
20110;SDS011;10216;42.658;23.248;2022-09-16T04:57:42;10.43;;;2.93;;
20110;SDS011;10216;42.658;23.248;2022-09-16T05:00:07;9.33;;;2.90;;
20110;SDS011;10216;42.658;23.248;2022-09-16T05:02:34;6.80;;;2.70;;
20110;SDS011;10216;42.658;23.248;2022-09-16T05:04:59;9.23;;;3.00;;
20110;SDS011;10216;42.658;23.248;2022-09-16T05:07:26;8.60;;;2.90;;
20110;SDS011;10216;42.658;23.248;2022-09-16T05:09:53;6.97;;;2.93;;
20110;SDS011;10216;42.658;23.248;2022-09-16T05:12:18;8.37;;;2.50;;
20110;SDS011;10216;42.658;23.248;2022-09-16T05:14:44;12.43;;;3.13;;
20110;SDS011;10216;42.658;23.248;2022-09-16T05:17:09;9.37;;;3.17;;
20110;SDS011;10216;42.658;23.248;2022-09-16T05:19:34;7.53;;;2.83;;
20110;SDS011;10216;42.658;23.248;2022-09-16T05:22:00;6.47;;;2.57;;
20110;SDS011;10216;42.658;23.248;2022-09-16T05:24:30;8.90;;;2.40;;
20110;SDS011;10216;42.658;23.248;2022-09-16T05:26:59;7.47;;;2.80;;
20110;SDS011;10216;42.658;23.248;2022-09-16T05:29:24;5.53;;;2.80;;
20110;SDS011;10216;42.658;23.248;2022-09-16T05:31:49;11.37;;;3.20;;
20110;SDS011;10216;42.658;23.248;2022-09-16T05:34:19;7.50;;;2.70;;
20110;SDS011;10216;42.658;23.248;2022-09-16T05:36:46;8.50;;;3.40;;
20110;SDS011;10216;42.658;23.248;2022-09-16T05:39:13;9.93;;;2.80;;
20110;SDS011;10216;42.658;23.248;2022-09-16T05:41:42;11.23;;;3.50;;
20110;SDS011;10216;42.658;23.248;2022-09-16T05:44:07;9.17;;;2.87;;
20110;SDS011;10216;42.658;23.248;2022-09-16T05:46:32;6.97;;;2.80;;
20110;SDS011;10216;42.658;23.248;2022-09-16T05:48:59;11.00;;;3.00;;
20110;SDS011;10216;42.658;23.248;2022-09-16T05:51:24;7.63;;;2.90;;
20110;SDS011;10216;42.658;23.248;2022-09-16T05:53:50;9.43;;;2.40;;
20110;SDS011;10216;42.658;23.248;2022-09-16T05:56:18;7.87;;;2.27;;
20110;SDS011;10216;42.658;23.248;2022-09-16T05:58:45;9.83;;;2.87;;
20110;SDS011;10216;42.658;23.248;2022-09-16T06:01:13;7.40;;;2.70;;
20110;SDS011;10216;42.658;23.248;2022-09-16T06:03:40;5.83;;;2.17;;
20110;SDS011;10216;42.658;23.248;2022-09-16T06:08:37;12.97;;;2.87;;
20110;SDS011;10216;42.658;23.248;2022-09-16T06:11:04;11.67;;;2.73;;
20110;SDS011;10216;42.658;23.248;2022-09-16T06:13:32;9.20;;;2.70;;
20110;SDS011;10216;42.658;23.248;2022-09-16T06:15:57;5.97;;;2.33;;
20110;SDS011;10216;42.658;23.248;2022-09-16T06:18:24;9.20;;;2.63;;
20110;SDS011;10216;42.658;23.248;2022-09-16T06:20:50;9.50;;;2.47;;
20110;SDS011;10216;42.658;23.248;2022-09-16T06:23:16;6.27;;;2.57;;
20110;SDS011;10216;42.658;23.248;2022-09-16T06:25:43;8.77;;;3.10;;
20110;SDS011;10216;42.658;23.248;2022-09-16T06:28:09;12.53;;;3.00;;
20110;SDS011;10216;42.658;23.248;2022-09-16T06:30:35;8.93;;;3.33;;
20110;SDS011;10216;42.658;23.248;2022-09-16T06:33:01;12.00;;;3.67;;
20110;SDS011;10216;42.658;23.248;2022-09-16T06:35:27;8.80;;;3.00;;
20110;SDS011;10216;42.658;23.248;2022-09-16T06:37:53;9.67;;;2.47;;
20110;SDS011;10216;42.658;23.248;2022-09-16T06:40:18;11.17;;;2.87;;
20110;SDS011;10216;42.658;23.248;2022-09-16T06:42:43;7.30;;;2.20;;
20110;SDS011;10216;42.658;23.248;2022-09-16T06:45:09;10.43;;;2.47;;
20110;SDS011;10216;42.658;23.248;2022-09-16T06:47:35;8.07;;;2.30;;
20110;SDS011;10216;42.658;23.248;2022-09-16T06:50:00;11.93;;;2.70;;
20110;SDS011;10216;42.658;23.248;2022-09-16T06:52:28;8.87;;;2.10;;
20110;SDS011;10216;42.658;23.248;2022-09-16T06:54:53;12.97;;;2.40;;
20110;SDS011;10216;42.658;23.248;2022-09-16T06:57:19;14.33;;;2.63;;
20110;SDS011;10216;42.658;23.248;2022-09-16T06:59:47;11.77;;;3.23;;
20110;SDS011;10216;42.658;23.248;2022-09-16T07:02:13;11.13;;;2.97;;
20110;SDS011;10216;42.658;23.248;2022-09-16T07:04:39;7.83;;;3.10;;
20110;SDS011;10216;42.658;23.248;2022-09-16T07:07:04;7.83;;;2.83;;
20110;SDS011;10216;42.658;23.248;2022-09-16T07:09:30;9.80;;;3.13;;
20110;SDS011;10216;42.658;23.248;2022-09-16T07:11:56;6.57;;;2.90;;
20110;SDS011;10216;42.658;23.248;2022-09-16T07:14:23;14.80;;;3.13;;
20110;SDS011;10216;42.658;23.248;2022-09-16T07:16:49;10.13;;;2.80;;
20110;SDS011;10216;42.658;23.248;2022-09-16T07:19:14;9.93;;;4.03;;
20110;SDS011;10216;42.658;23.248;2022-09-16T07:21:39;7.90;;;2.73;;
20110;SDS011;10216;42.658;23.248;2022-09-16T07:24:06;15.97;;;2.87;;
20110;SDS011;10216;42.658;23.248;2022-09-16T07:26:34;7.73;;;2.67;;
20110;SDS011;10216;42.658;23.248;2022-09-16T07:29:02;8.40;;;2.43;;
20110;SDS011;10216;42.658;23.248;2022-09-16T07:31:30;14.37;;;2.80;;
20110;SDS011;10216;42.658;23.248;2022-09-16T07:33:57;7.33;;;2.17;;
20110;SDS011;10216;42.658;23.248;2022-09-16T07:36:26;10.00;;;2.77;;
20110;SDS011;10216;42.658;23.248;2022-09-16T07:38:53;7.53;;;3.03;;
20110;SDS011;10216;42.658;23.248;2022-09-16T07:41:22;21.23;;;13.07;;
20110;SDS011;10216;42.658;23.248;2022-09-16T07:43:52;12.23;;;6.40;;
20110;SDS011;10216;42.658;23.248;2022-09-16T07:46:25;10.95;;;6.35;;
20110;SDS011;10216;42.658;23.248;2022-09-16T07:48:53;9.95;;;2.97;;
20110;SDS011;10216;42.658;23.248;2022-09-16T07:51:21;8.87;;;3.47;;
20110;SDS011;10216;42.658;23.248;2022-09-16T07:53:52;11.30;;;4.40;;
20110;SDS011;10216;42.658;23.248;2022-09-16T07:56:26;11.32;;;6.55;;
20110;SDS011;10216;42.658;23.248;2022-09-16T07:58:53;7.35;;;3.13;;
20110;SDS011;10216;42.658;23.248;2022-09-16T08:01:20;13.35;;;4.22;;
20110;SDS011;10216;42.658;23.248;2022-09-16T08:03:46;10.45;;;4.28;;
20110;SDS011;10216;42.658;23.248;2022-09-16T08:06:16;8.38;;;2.67;;
20110;SDS011;10216;42.658;23.248;2022-09-16T08:08:43;14.70;;;3.33;;
20110;SDS011;10216;42.658;23.248;2022-09-16T08:11:09;12.40;;;3.97;;
20110;SDS011;10216;42.658;23.248;2022-09-16T08:13:37;15.63;;;7.30;;
20110;SDS011;10216;42.658;23.248;2022-09-16T08:16:04;13.30;;;5.63;;
20110;SDS011;10216;42.658;23.248;2022-09-16T08:18:31;9.57;;;3.50;;
20110;SDS011;10216;42.658;23.248;2022-09-16T08:20:57;15.70;;;4.57;;
20110;SDS011;10216;42.658;23.248;2022-09-16T08:23:28;13.63;;;3.90;;
20110;SDS011;10216;42.658;23.248;2022-09-16T08:25:57;8.68;;;3.10;;
20110;SDS011;10216;42.658;23.248;2022-09-16T08:28:23;10.77;;;3.35;;
20110;SDS011;10216;42.658;23.248;2022-09-16T08:30:49;11.45;;;3.22;;
20110;SDS011;10216;42.658;23.248;2022-09-16T08:33:16;97.50;;;53.40;;
20110;SDS011;10216;42.658;23.248;2022-09-16T08:35:45;223.60;;;136.95;;
20110;SDS011;10216;42.658;23.248;2022-09-16T08:38:32;146.25;;;84.85;;
20110;SDS011;10216;42.658;23.248;2022-09-16T08:41:00;171.27;;;110.15;;
20110;SDS011;10216;42.658;23.248;2022-09-16T08:43:35;17.30;;;8.00;;
20110;SDS011;10216;42.658;23.248;2022-09-16T08:46:04;14.73;;;5.18;;
20110;SDS011;10216;42.658;23.248;2022-09-16T08:51:12;11.70;;;5.05;;
20110;SDS011;10216;42.658;23.248;2022-09-16T08:53:53;12.18;;;4.22;;
20110;SDS011;10216;42.658;23.248;2022-09-16T08:56:23;15.75;;;4.80;;
20110;SDS011;10216;42.658;23.248;2022-09-16T08:58:55;25.50;;;14.55;;
20110;SDS011;10216;42.658;23.248;2022-09-16T09:01:44;24.60;;;12.68;;
20110;SDS011;10216;42.658;23.248;2022-09-16T09:04:19;15.52;;;8.63;;
20110;SDS011;10216;42.658;23.248;2022-09-16T09:13:02;12.45;;;3.63;;
20110;SDS011;10216;42.658;23.248;2022-09-16T09:15:36;11.23;;;3.58;;
20110;SDS011;10216;42.658;23.248;2022-09-16T09:18:42;12.18;;;3.63;;
20110;SDS011;10216;42.658;23.248;2022-09-16T09:21:18;9.77;;;3.83;;
20110;SDS011;10216;42.658;23.248;2022-09-16T09:27:11;7.47;;;3.28;;
20110;SDS011;10216;42.658;23.248;2022-09-16T09:32:38;15.15;;;5.22;;
20110;SDS011;10216;42.658;23.248;2022-09-16T09:45:01;8.35;;;2.63;;
20110;SDS011;10216;42.658;23.248;2022-09-16T09:47:02;12.48;;;4.70;;
20110;SDS011;10216;42.658;23.248;2022-09-16T09:49:40;11.35;;;3.90;;
20110;SDS011;10216;42.658;23.248;2022-09-16T09:52:18;11.02;;;3.35;;
20110;SDS011;10216;42.658;23.248;2022-09-16T09:54:50;14.45;;;3.47;;
20110;SDS011;10216;42.658;23.248;2022-09-16T10:00:11;11.43;;;3.20;;
20110;SDS011;10216;42.658;23.248;2022-09-16T10:02:42;11.10;;;3.95;;
20110;SDS011;10216;42.658;23.248;2022-09-16T10:05:14;13.02;;;3.83;;
20110;SDS011;10216;42.658;23.248;2022-09-16T10:07:53;8.90;;;3.35;;
20110;SDS011;10216;42.658;23.248;2022-09-16T10:10:23;9.63;;;2.80;;
20110;SDS011;10216;42.658;23.248;2022-09-16T10:12:50;7.53;;;2.73;;
20110;SDS011;10216;42.658;23.248;2022-09-16T10:15:18;13.43;;;3.50;;
20110;SDS011;10216;42.658;23.248;2022-09-16T10:17:52;10.47;;;2.93;;
20110;SDS011;10216;42.658;23.248;2022-09-16T10:20:34;10.83;;;2.73;;
20110;SDS011;10216;42.658;23.248;2022-09-16T10:23:21;9.77;;;3.30;;
20110;SDS011;10216;42.658;23.248;2022-09-16T10:25:49;12.37;;;3.17;;
20110;SDS011;10216;42.658;23.248;2022-09-16T10:28:32;4.87;;;3.00;;
20110;SDS011;10216;42.658;23.248;2022-09-16T10:30:59;10.10;;;2.67;;
20110;SDS011;10216;42.658;23.248;2022-09-16T10:33:29;8.00;;;2.13;;
20110;SDS011;10216;42.658;23.248;2022-09-16T10:36:07;5.97;;;1.97;;
20110;SDS011;10216;42.658;23.248;2022-09-16T10:38:42;3.73;;;1.90;;
20110;SDS011;10216;42.658;23.248;2022-09-16T10:41:15;5.80;;;1.93;;
20110;SDS011;10216;42.658;23.248;2022-09-16T10:43:53;5.43;;;1.83;;
20110;SDS011;10216;42.658;23.248;2022-09-16T10:46:23;6.07;;;1.70;;
20110;SDS011;10216;42.658;23.248;2022-09-16T10:48:49;6.03;;;1.87;;
20110;SDS011;10216;42.658;23.248;2022-09-16T10:51:20;2.90;;;1.50;;
20110;SDS011;10216;42.658;23.248;2022-09-16T10:53:52;4.80;;;2.00;;
20110;SDS011;10216;42.658;23.248;2022-09-16T10:56:21;3.40;;;1.50;;
20110;SDS011;10216;42.658;23.248;2022-09-16T10:58:50;6.20;;;1.93;;
20110;SDS011;10216;42.658;23.248;2022-09-16T11:07:15;5.63;;;1.50;;
20110;SDS011;10216;42.658;23.248;2022-09-16T11:18:13;3.67;;;1.13;;
20110;SDS011;10216;42.658;23.248;2022-09-16T11:29:11;3.40;;;0.80;;
20110;SDS011;10216;42.658;23.248;2022-09-16T11:39:45;2.27;;;0.77;;
20110;SDS011;10216;42.658;23.248;2022-09-16T11:42:25;2.10;;;1.00;;
20110;SDS011;10216;42.658;23.248;2022-09-16T11:45:00;1.73;;;0.90;;
20110;SDS011;10216;42.658;23.248;2022-09-16T11:50:17;1.65;;;0.60;;
20110;SDS011;10216;42.658;23.248;2022-09-16T12:00:57;2.00;;;0.80;;
20110;SDS011;10216;42.658;23.248;2022-09-16T12:05:52;1.88;;;0.68;;
20110;SDS011;10216;42.658;23.248;2022-09-16T12:08:33;3.50;;;0.70;;
20110;SDS011;10216;42.658;23.248;2022-09-16T12:13:55;1.33;;;0.70;;
20110;SDS011;10216;42.658;23.248;2022-09-16T12:16:42;1.13;;;0.55;;
20110;SDS011;10216;42.658;23.248;2022-09-16T12:19:26;1.58;;;0.70;;
20110;SDS011;10216;42.658;23.248;2022-09-16T12:22:17;1.90;;;0.63;;
20110;SDS011;10216;42.658;23.248;2022-09-16T12:25:08;2.20;;;0.75;;
20110;SDS011;10216;42.658;23.248;2022-09-16T12:27:48;0.88;;;0.70;;
20110;SDS011;10216;42.658;23.248;2022-09-16T12:30:20;0.93;;;0.60;;
20110;SDS011;10216;42.658;23.248;2022-09-16T12:33:07;3.58;;;0.70;;
20110;SDS011;10216;42.658;23.248;2022-09-16T12:35:40;1.98;;;0.82;;
20110;SDS011;10216;42.658;23.248;2022-09-16T12:38:16;2.08;;;1.02;;
20110;SDS011;10216;42.658;23.248;2022-09-16T12:40:50;1.58;;;1.08;;
20110;SDS011;10216;42.658;23.248;2022-09-16T12:48:56;4.57;;;1.87;;
20110;SDS011;10216;42.658;23.248;2022-09-16T12:59:13;1.80;;;1.13;;
20110;SDS011;10216;42.658;23.248;2022-09-16T13:01:49;3.50;;;1.07;;
20110;SDS011;10216;42.658;23.248;2022-09-16T13:04:21;1.40;;;0.90;;
20110;SDS011;10216;42.658;23.248;2022-09-16T13:06:53;4.10;;;1.33;;
20110;SDS011;10216;42.658;23.248;2022-09-16T13:09:23;4.30;;;1.50;;
20110;SDS011;10216;42.658;23.248;2022-09-16T13:12:33;4.17;;;1.83;;
20110;SDS011;10216;42.658;23.248;2022-09-16T13:17:08;6.27;;;2.67;;
20110;SDS011;10216;42.658;23.248;2022-09-16T13:19:51;4.10;;;1.90;;
20110;SDS011;10216;42.658;23.248;2022-09-16T13:27:26;3.33;;;1.23;;
20110;SDS011;10216;42.658;23.248;2022-09-16T13:30:04;3.90;;;0.90;;
20110;SDS011;10216;42.658;23.248;2022-09-16T13:32:39;2.07;;;1.00;;
20110;SDS011;10216;42.658;23.248;2022-09-16T13:37:48;4.40;;;1.20;;
20110;SDS011;10216;42.658;23.248;2022-09-16T13:40:21;3.53;;;1.30;;
20110;SDS011;10216;42.658;23.248;2022-09-16T13:45:37;4.43;;;1.60;;
20110;SDS011;10216;42.658;23.248;2022-09-16T13:48:08;2.17;;;1.20;;
20110;SDS011;10216;42.658;23.248;2022-09-16T13:50:34;5.17;;;1.43;;
20110;SDS011;10216;42.658;23.248;2022-09-16T13:53:15;2.77;;;1.50;;
20110;SDS011;10216;42.658;23.248;2022-09-16T13:55:45;3.90;;;1.40;;
20110;SDS011;10216;42.658;23.248;2022-09-16T13:58:26;4.23;;;1.60;;
20110;SDS011;10216;42.658;23.248;2022-09-16T14:15:17;4.53;;;1.70;;
20110;SDS011;10216;42.658;23.248;2022-09-16T14:17:46;8.77;;;1.83;;
20110;SDS011;10216;42.658;23.248;2022-09-16T14:20:16;3.73;;;2.03;;
20110;SDS011;10216;42.658;23.248;2022-09-16T14:22:45;3.53;;;2.10;;
20110;SDS011;10216;42.658;23.248;2022-09-16T14:25:31;6.63;;;2.23;;
20110;SDS011;10216;42.658;23.248;2022-09-16T14:30:58;1.90;;;1.43;;
20110;SDS011;10216;42.658;23.248;2022-09-16T14:33:36;5.00;;;1.50;;
20110;SDS011;10216;42.658;23.248;2022-09-16T14:36:26;3.90;;;1.63;;
20110;SDS011;10216;42.658;23.248;2022-09-16T14:38:55;4.57;;;1.60;;
20110;SDS011;10216;42.658;23.248;2022-09-16T14:41:28;1.83;;;1.30;;
20110;SDS011;10216;42.658;23.248;2022-09-16T14:44:24;2.97;;;1.63;;
20110;SDS011;10216;42.658;23.248;2022-09-16T14:46:54;5.13;;;1.60;;
20110;SDS011;10216;42.658;23.248;2022-09-16T14:49:30;3.90;;;1.77;;
20110;SDS011;10216;42.658;23.248;2022-09-16T14:51:57;4.77;;;1.67;;
20110;SDS011;10216;42.658;23.248;2022-09-16T14:54:26;4.30;;;1.57;;
20110;SDS011;10216;42.658;23.248;2022-09-16T14:57:05;4.50;;;1.90;;
20110;SDS011;10216;42.658;23.248;2022-09-16T15:02:02;5.27;;;1.80;;
20110;SDS011;10216;42.658;23.248;2022-09-16T15:04:32;5.90;;;1.63;;
20110;SDS011;10216;42.658;23.248;2022-09-16T15:07:07;5.23;;;1.70;;
20110;SDS011;10216;42.658;23.248;2022-09-16T15:09:43;4.00;;;1.80;;
20110;SDS011;10216;42.658;23.248;2022-09-16T15:12:16;5.63;;;1.63;;
20110;SDS011;10216;42.658;23.248;2022-09-16T15:15:09;3.27;;;1.40;;
20110;SDS011;10216;42.658;23.248;2022-09-16T15:17:44;3.73;;;1.63;;
20110;SDS011;10216;42.658;23.248;2022-09-16T15:20:27;4.87;;;1.97;;
20110;SDS011;10216;42.658;23.248;2022-09-16T15:22:56;3.90;;;1.73;;
20110;SDS011;10216;42.658;23.248;2022-09-16T15:25:24;6.30;;;1.43;;
20110;SDS011;10216;42.658;23.248;2022-09-16T15:28:03;2.30;;;1.30;;
20110;SDS011;10216;42.658;23.248;2022-09-16T15:30:29;6.60;;;1.60;;
20110;SDS011;10216;42.658;23.248;2022-09-16T15:32:54;3.23;;;1.67;;
20110;SDS011;10216;42.658;23.248;2022-09-16T15:37:48;4.03;;;1.60;;
20110;SDS011;10216;42.658;23.248;2022-09-16T15:43:13;5.47;;;1.30;;
20110;SDS011;10216;42.658;23.248;2022-09-16T15:45:41;3.77;;;1.40;;
20110;SDS011;10216;42.658;23.248;2022-09-16T15:48:17;2.77;;;1.20;;
20110;SDS011;10216;42.658;23.248;2022-09-16T15:50:50;5.13;;;1.93;;
20110;SDS011;10216;42.658;23.248;2022-09-16T15:56:08;4.43;;;1.83;;
20110;SDS011;10216;42.658;23.248;2022-09-16T15:58:56;2.33;;;1.50;;
20110;SDS011;10216;42.658;23.248;2022-09-16T16:04:28;3.37;;;1.80;;
20110;SDS011;10216;42.658;23.248;2022-09-16T16:06:57;4.87;;;1.60;;
20110;SDS011;10216;42.658;23.248;2022-09-16T16:11:57;2.67;;;1.70;;
20110;SDS011;10216;42.658;23.248;2022-09-16T16:14:28;5.67;;;2.10;;
20110;SDS011;10216;42.658;23.248;2022-09-16T16:19:38;5.27;;;1.80;;
20110;SDS011;10216;42.658;23.248;2022-09-16T16:22:05;5.53;;;2.13;;
20110;SDS011;10216;42.658;23.248;2022-09-16T16:24:31;5.77;;;2.00;;
20110;SDS011;10216;42.658;23.248;2022-09-16T16:26:57;3.80;;;1.63;;
20110;SDS011;10216;42.658;23.248;2022-09-16T16:29:23;4.70;;;1.80;;
20110;SDS011;10216;42.658;23.248;2022-09-16T16:32:03;4.40;;;1.93;;
20110;SDS011;10216;42.658;23.248;2022-09-16T16:34:37;5.30;;;2.10;;
20110;SDS011;10216;42.658;23.248;2022-09-16T16:37:07;6.47;;;2.13;;
20110;SDS011;10216;42.658;23.248;2022-09-16T16:39:33;5.30;;;1.67;;
20110;SDS011;10216;42.658;23.248;2022-09-16T16:41:59;5.23;;;2.47;;
20110;SDS011;10216;42.658;23.248;2022-09-16T16:44:25;8.27;;;2.60;;
20110;SDS011;10216;42.658;23.248;2022-09-16T16:46:51;3.90;;;1.40;;
20110;SDS011;10216;42.658;23.248;2022-09-16T16:49:18;3.43;;;1.40;;
20110;SDS011;10216;42.658;23.248;2022-09-16T16:51:44;6.40;;;1.47;;
20110;SDS011;10216;42.658;23.248;2022-09-16T16:54:11;6.73;;;1.93;;
20110;SDS011;10216;42.658;23.248;2022-09-16T16:56:37;5.30;;;2.00;;
20110;SDS011;10216;42.658;23.248;2022-09-16T16:59:04;5.63;;;1.53;;
20110;SDS011;10216;42.658;23.248;2022-09-16T17:01:30;5.67;;;1.43;;
20110;SDS011;10216;42.658;23.248;2022-09-16T17:03:57;6.63;;;1.77;;
20110;SDS011;10216;42.658;23.248;2022-09-16T17:06:24;6.43;;;1.40;;
20110;SDS011;10216;42.658;23.248;2022-09-16T17:08:49;3.40;;;1.20;;
20110;SDS011;10216;42.658;23.248;2022-09-16T17:11:15;3.77;;;1.10;;
20110;SDS011;10216;42.658;23.248;2022-09-16T17:13:50;7.40;;;1.43;;
20110;SDS011;10216;42.658;23.248;2022-09-16T17:16:17;2.87;;;1.50;;
20110;SDS011;10216;42.658;23.248;2022-09-16T17:18:45;4.50;;;2.07;;
20110;SDS011;10216;42.658;23.248;2022-09-16T17:21:15;5.43;;;2.30;;
20110;SDS011;10216;42.658;23.248;2022-09-16T17:23:43;5.13;;;2.60;;
20110;SDS011;10216;42.658;23.248;2022-09-16T17:26:09;7.43;;;2.90;;
20110;SDS011;10216;42.658;23.248;2022-09-16T17:28:35;6.03;;;2.77;;
20110;SDS011;10216;42.658;23.248;2022-09-16T17:31:09;8.43;;;2.90;;
20110;SDS011;10216;42.658;23.248;2022-09-16T17:33:34;5.10;;;3.43;;
20110;SDS011;10216;42.658;23.248;2022-09-16T17:36:01;10.70;;;3.60;;
20110;SDS011;10216;42.658;23.248;2022-09-16T17:38:28;8.60;;;5.00;;
20110;SDS011;10216;42.658;23.248;2022-09-16T17:41:07;9.23;;;3.20;;
20110;SDS011;10216;42.658;23.248;2022-09-16T17:43:33;6.10;;;3.23;;
20110;SDS011;10216;42.658;23.248;2022-09-16T17:45:59;6.90;;;3.27;;
20110;SDS011;10216;42.658;23.248;2022-09-16T17:48:26;6.57;;;3.67;;
20110;SDS011;10216;42.658;23.248;2022-09-16T17:50:52;9.90;;;4.50;;
20110;SDS011;10216;42.658;23.248;2022-09-16T17:53:18;7.57;;;3.77;;
20110;SDS011;10216;42.658;23.248;2022-09-16T17:55:44;7.23;;;3.63;;
20110;SDS011;10216;42.658;23.248;2022-09-16T17:58:11;5.60;;;3.70;;